createdAt,value
2022-08-09T00:00:12.008Z,58.93
2022-08-09T00:02:42.991Z,58.86
2022-08-09T00:06:17.892Z,58.72
2022-08-09T00:08:13.041Z,58.82
2022-08-09T00:10:59.229Z,59.08
2022-08-09T00:13:26.132Z,59.19
2022-08-09T00:15:59.554Z,59.27
2022-08-09T00:18:31.469Z,59.45
2022-08-09T00:21:04.602Z,59.29
2022-08-09T00:23:55.684Z,59.03
2022-08-09T00:26:18.822Z,59.15
2022-08-09T00:28:52.425Z,58.90
2022-08-09T00:31:56.930Z,59.36
2022-08-09T00:34:10.884Z,59.48
2022-08-09T00:36:38.395Z,59.26
2022-08-09T00:39:17.086Z,59.27
2022-08-09T00:44:11.745Z,59.00
2022-08-09T00:44:43.070Z,59.40
2022-08-09T00:47:15.372Z,59.29
2022-08-09T00:49:43.862Z,59.33
2022-08-09T00:52:28.197Z,59.44
2022-08-09T00:55:00.172Z,59.14
2022-08-09T00:57:34.595Z,59.18
2022-08-09T01:00:21.758Z,59.04
2022-08-09T01:03:14.609Z,59.28
2022-08-09T01:05:54.180Z,59.08
2022-08-09T01:08:32.087Z,59.29
2022-08-09T01:11:04.696Z,59.04
2022-08-09T01:13:59.494Z,59.27
2022-08-09T01:16:47.326Z,59.12
2022-08-09T01:19:42.701Z,59.13
2022-08-09T01:22:27.810Z,59.07
2022-08-09T01:24:55.132Z,59.39
2022-08-09T01:27:24.890Z,59.49
2022-08-09T01:30:05.552Z,59.64
2022-08-09T01:32:45.340Z,59.09
2022-08-09T01:35:37.273Z,59.37
2022-08-09T01:38:14.846Z,59.47
2022-08-09T01:40:52.818Z,59.41
2022-08-09T01:43:32.284Z,59.43
2022-08-09T01:46:26.961Z,59.50
2022-08-09T01:49:00.000Z,59.56
2022-08-09T01:51:32.161Z,59.63
2022-08-09T01:54:04.088Z,59.55
2022-08-09T01:56:33.529Z,59.40
2022-08-09T01:59:06.418Z,59.51
2022-08-09T02:01:59.405Z,59.69
2022-08-09T02:04:25.196Z,59.48
2022-08-09T02:07:15.329Z,59.24
2022-08-09T02:09:59.396Z,59.63
2022-08-09T02:12:30.789Z,59.55
2022-08-09T02:15:00.418Z,59.55
2022-08-09T02:17:59.959Z,59.44
2022-08-09T02:20:25.339Z,59.11
2022-08-09T02:23:10.347Z,59.39
2022-08-09T02:25:42.201Z,59.18
2022-08-09T02:28:19.606Z,59.22
2022-08-09T02:30:54.297Z,59.23
2022-08-09T02:33:58.312Z,59.45
2022-08-09T02:36:18.377Z,59.34
2022-08-09T02:38:54.911Z,59.38
2022-08-09T02:41:30.855Z,59.26
2022-08-09T02:44:10.515Z,59.42
2022-08-09T02:46:52.484Z,59.70
2022-08-09T02:49:19.702Z,59.40
2022-08-09T02:51:57.796Z,59.58
2022-08-09T02:54:28.603Z,59.65
2022-08-09T02:57:13.959Z,59.35
2022-08-09T03:00:11.239Z,59.64
2022-08-09T03:02:46.475Z,59.54
2022-08-09T03:05:28.800Z,59.47
2022-08-09T03:07:56.993Z,59.79
2022-08-09T03:10:26.487Z,59.53
2022-08-09T03:12:55.100Z,59.24
2022-08-09T03:15:23.697Z,59.52
2022-08-09T03:17:58.025Z,59.54
2022-08-09T03:20:29.421Z,59.72
2022-08-09T03:23:05.577Z,59.56
2022-08-09T03:25:59.237Z,59.63
2022-08-09T03:28:31.233Z,59.48
2022-08-09T03:31:04.401Z,59.66
2022-08-09T03:33:53.347Z,59.68
2022-08-09T03:36:21.670Z,59.50
2022-08-09T03:38:54.890Z,59.52
2022-08-09T03:41:29.984Z,59.57
2022-08-09T03:44:10.240Z,59.44
2022-08-09T03:46:39.267Z,59.38
2022-08-09T03:49:08.268Z,59.50
2022-08-09T03:51:56.613Z,59.52
2022-08-09T03:54:31.484Z,59.63
2022-08-09T03:57:04.440Z,59.65
2022-08-09T03:59:52.853Z,59.66
2022-08-09T04:02:27.015Z,59.50
2022-08-09T04:04:58.719Z,59.68
2022-08-09T04:07:47.630Z,60.00
2022-08-09T04:10:13.555Z,59.87
2022-08-09T04:12:47.968Z,60.22
2022-08-09T04:15:52.224Z,60.04
2022-08-09T04:18:06.447Z,59.86
2022-08-09T04:20:33.857Z,60.30
2022-08-09T04:23:01.975Z,60.33
2022-08-09T04:25:29.375Z,60.10
2022-08-09T04:28:02.362Z,60.50
2022-08-09T04:30:31.899Z,60.16
2022-08-09T04:33:00.333Z,60.49
2022-08-09T04:35:29.435Z,60.32
2022-08-09T04:37:59.886Z,60.26
2022-08-09T04:40:48.459Z,60.43
2022-08-09T04:43:23.144Z,60.64
2022-08-09T04:45:54.030Z,60.99
2022-08-09T04:48:21.784Z,61.46
2022-08-09T04:50:50.873Z,62.09
2022-08-09T04:53:17.805Z,62.41
2022-08-09T04:55:59.152Z,62.36
2022-08-09T04:58:28.031Z,62.54
2022-08-09T05:00:57.510Z,62.71
2022-08-09T05:03:40.995Z,62.70
2022-08-09T05:06:22.102Z,62.72
2022-08-09T05:09:00.451Z,62.59
2022-08-09T05:11:32.481Z,62.78
2022-08-09T05:14:05.889Z,62.96
2022-08-09T05:16:33.534Z,62.84
2022-08-09T05:19:10.669Z,63.00
2022-08-09T05:21:47.091Z,62.61
2022-08-09T05:24:19.241Z,62.47
2022-08-09T05:26:47.641Z,62.55
2022-08-09T05:29:23.974Z,62.78
2022-08-09T05:31:57.602Z,63.04
2022-08-09T05:34:30.678Z,62.59
2022-08-09T05:37:06.089Z,62.81
2022-08-09T05:39:42.423Z,63.04
2022-08-09T05:42:20.579Z,62.44
2022-08-09T05:44:51.347Z,62.64
2022-08-09T05:47:21.525Z,62.57
2022-08-09T05:50:35.024Z,62.45
2022-08-09T05:52:38.424Z,62.03
2022-08-09T05:55:07.308Z,62.23
2022-08-09T05:57:50.750Z,62.36
2022-08-09T06:00:23.694Z,62.28
2022-08-09T06:02:54.080Z,62.08
2022-08-09T06:05:31.042Z,62.28
2022-08-09T06:08:09.248Z,61.92
2022-08-09T06:10:38.845Z,61.55
2022-08-09T06:13:12.429Z,61.99
2022-08-09T06:15:46.840Z,62.75
2022-08-09T06:18:15.721Z,63.15
2022-08-09T06:20:43.035Z,63.48
2022-08-09T06:23:16.965Z,63.59
2022-08-09T06:25:43.851Z,62.51
2022-08-09T06:28:10.816Z,62.63
2022-08-09T06:30:43.374Z,62.64
2022-08-09T06:33:30.603Z,62.71
2022-08-09T06:35:58.378Z,62.42
2022-08-09T06:38:32.190Z,62.25
2022-08-09T06:41:09.377Z,62.08
2022-08-09T06:43:46.842Z,62.37
2022-08-09T06:46:39.705Z,62.18
2022-08-09T06:49:02.375Z,62.11
2022-08-09T06:51:29.266Z,62.32
2022-08-09T06:54:00.888Z,62.02
2022-08-09T06:56:30.976Z,62.26
2022-08-09T07:00:49.063Z,61.99
2022-08-09T07:01:53.694Z,62.27
2022-08-09T07:04:24.571Z,62.05
2022-08-09T07:06:53.533Z,62.05
2022-08-09T07:09:55.305Z,62.43
2022-08-09T07:12:17.957Z,62.55
2022-08-09T07:14:50.670Z,62.14
2022-08-09T07:17:19.328Z,62.55
2022-08-09T07:19:48.261Z,62.44
2022-08-09T07:22:18.562Z,62.55
2022-08-09T07:24:55.048Z,62.60
2022-08-09T07:27:27.283Z,62.76
2022-08-09T07:30:03.038Z,62.71
2022-08-09T07:32:33.567Z,62.71
2022-08-09T07:35:07.974Z,62.82
2022-08-09T07:37:43.604Z,62.75
2022-08-09T07:40:18.681Z,62.61
2022-08-09T07:43:03.779Z,62.50
2022-08-09T07:45:41.887Z,62.83
2022-08-09T07:48:29.530Z,62.52
2022-08-09T07:51:09.207Z,62.52
2022-08-09T07:54:06.274Z,62.49
2022-08-09T07:56:36.037Z,62.30
2022-08-09T07:59:14.223Z,62.87
2022-08-09T08:01:53.237Z,62.25
2022-08-09T08:04:20.475Z,62.19
2022-08-09T08:07:00.253Z,62.54
2022-08-09T08:09:45.172Z,62.16
2022-08-09T08:12:37.165Z,62.31
2022-08-09T08:15:07.489Z,62.47
2022-08-09T08:17:53.064Z,62.44
2022-08-09T08:20:29.477Z,62.46
2022-08-09T08:23:06.940Z,62.43
2022-08-09T08:25:46.405Z,62.29
2022-08-09T08:28:15.502Z,62.24
2022-08-09T08:30:47.495Z,61.78
2022-08-09T08:33:23.088Z,61.34
2022-08-09T08:35:59.298Z,61.34
2022-08-09T08:38:31.108Z,61.68
2022-08-09T08:40:59.611Z,61.29
2022-08-09T08:43:28.077Z,61.48
2022-08-09T08:46:10.143Z,61.27
2022-08-09T08:48:51.909Z,61.40
2022-08-09T08:51:22.608Z,60.93
2022-08-09T08:54:03.095Z,61.19
2022-08-09T08:56:37.832Z,61.36
2022-08-09T08:59:19.832Z,61.55
2022-08-09T09:01:53.306Z,61.09
2022-08-09T09:04:41.312Z,61.19
2022-08-09T09:07:16.209Z,60.90
2022-08-09T09:10:02.069Z,61.15
2022-08-09T09:12:34.408Z,61.12
2022-08-09T09:15:05.782Z,60.89
2022-08-09T09:17:46.410Z,61.00
2022-08-09T09:20:17.395Z,60.85
2022-08-09T09:22:53.472Z,61.11
2022-08-09T09:26:01.354Z,61.04
2022-08-09T09:29:02.520Z,61.19
2022-08-09T09:32:06.012Z,61.23
2022-08-09T09:34:18.094Z,60.98
2022-08-09T09:36:52.788Z,60.83
2022-08-09T09:39:54.541Z,61.18
2022-08-09T09:42:24.856Z,60.85
2022-08-09T09:44:59.815Z,61.24
2022-08-09T09:47:29.308Z,61.04
2022-08-09T09:50:14.779Z,61.06
2022-08-09T09:52:53.705Z,61.03
2022-08-09T09:55:32.573Z,60.87
2022-08-09T09:58:17.106Z,60.89
2022-08-09T10:00:59.635Z,60.84
2022-08-09T10:03:44.100Z,60.66
2022-08-09T10:06:13.072Z,60.56
2022-08-09T10:08:55.059Z,60.90
2022-08-09T10:11:59.545Z,60.58
2022-08-09T10:14:30.772Z,60.43
2022-08-09T10:17:38.715Z,60.94
2022-08-09T10:19:58.905Z,60.45
2022-08-09T10:22:35.733Z,60.17
2022-08-09T10:25:11.994Z,60.26
2022-08-09T10:27:57.114Z,59.96
2022-08-09T10:32:13.695Z,59.82
2022-08-09T10:34:05.192Z,60.05
2022-08-09T10:36:09.675Z,59.95
2022-08-09T10:38:56.224Z,60.21
2022-08-09T10:41:27.760Z,60.07
2022-08-09T10:44:00.877Z,60.13
2022-08-09T10:46:55.679Z,60.04
2022-08-09T10:49:51.523Z,59.82
2022-08-09T10:52:53.652Z,60.03
2022-08-09T10:55:26.420Z,60.18
2022-08-09T10:57:58.658Z,60.02
2022-08-09T11:00:33.274Z,60.28
2022-08-09T11:03:14.819Z,60.17
2022-08-09T11:06:15.427Z,60.10
2022-08-09T11:08:47.742Z,60.17
2022-08-09T11:11:17.306Z,59.86
2022-08-09T11:13:51.217Z,60.04
2022-08-09T11:16:37.393Z,60.06
2022-08-09T11:19:07.841Z,60.06
2022-08-09T11:22:10.173Z,60.01
2022-08-09T11:25:17.611Z,60.14
2022-08-09T11:28:08.332Z,60.01
2022-08-09T11:30:39.899Z,60.04
2022-08-09T11:33:18.094Z,59.82
2022-08-09T11:35:50.271Z,60.03
2022-08-09T11:38:32.308Z,59.97
2022-08-09T11:41:13.850Z,60.22
2022-08-09T11:43:49.153Z,60.19
2022-08-09T11:46:26.864Z,60.45
2022-08-09T11:49:05.342Z,60.50
2022-08-09T11:53:15.315Z,60.32
2022-08-09T11:55:34.862Z,60.53
2022-08-09T11:58:15.208Z,60.50
2022-08-09T12:00:49.896Z,60.40
2022-08-09T12:03:54.986Z,60.11
2022-08-09T12:06:18.136Z,60.07
2022-08-09T12:08:56.200Z,59.83
2022-08-09T12:11:27.226Z,59.82
2022-08-09T12:14:28.538Z,59.85
2022-08-09T12:16:56.388Z,60.10
2022-08-09T12:19:30.771Z,59.80
2022-08-09T12:22:05.018Z,60.16
2022-08-09T12:24:32.647Z,59.85
2022-08-09T12:29:14.243Z,59.81
2022-08-09T12:30:02.019Z,59.65
2022-08-09T12:32:44.181Z,59.50
2022-08-09T12:35:13.382Z,59.43
2022-08-09T12:37:51.839Z,59.50
2022-08-09T12:40:23.249Z,59.23
2022-08-09T12:42:52.758Z,59.66
2022-08-09T12:45:34.786Z,59.71
2022-08-09T12:48:20.277Z,59.52
2022-08-09T12:50:56.023Z,59.39
2022-08-09T12:53:37.220Z,59.30
2022-08-09T12:56:13.815Z,59.38
2022-08-09T12:59:08.646Z,59.05
2022-08-09T13:01:46.931Z,59.08
2022-08-09T13:04:37.098Z,59.40
2022-08-09T13:07:20.034Z,59.08
2022-08-09T13:10:05.158Z,59.34
2022-08-09T13:12:39.949Z,59.01
2022-08-09T13:15:20.562Z,59.18
2022-08-09T13:18:05.434Z,59.11
2022-08-09T13:20:37.372Z,59.08
2022-08-09T13:24:15.221Z,59.07
2022-08-09T13:26:39.963Z,58.82
2022-08-09T13:29:13.411Z,58.84
2022-08-09T13:32:14.069Z,58.94
2022-08-09T13:34:48.867Z,58.57
2022-08-09T13:37:24.641Z,58.36
2022-08-09T13:41:52.004Z,57.84
2022-08-09T13:42:56.243Z,57.83
2022-08-09T13:45:32.641Z,57.91
2022-08-09T13:48:11.088Z,58.47
2022-08-09T13:50:38.483Z,58.56
2022-08-09T13:53:07.287Z,58.55
2022-08-09T13:55:34.882Z,58.90
2022-08-09T13:58:07.956Z,58.77
2022-08-09T14:00:50.005Z,58.57
2022-08-09T14:04:05.464Z,58.57
2022-08-09T14:06:19.362Z,58.82
2022-08-09T14:08:53.509Z,59.04
2022-08-09T14:11:20.782Z,58.79
2022-08-09T14:14:23.568Z,59.09
2022-08-09T14:16:37.985Z,59.11
2022-08-09T14:19:07.682Z,58.92
2022-08-09T14:21:34.568Z,58.70
2022-08-09T14:24:10.002Z,59.07
2022-08-09T14:26:46.930Z,58.75
2022-08-09T14:30:04.160Z,58.93
2022-08-09T14:32:11.305Z,58.98
2022-08-09T14:34:41.237Z,58.81
2022-08-09T14:37:09.050Z,58.89
2022-08-09T14:39:40.407Z,58.57
2022-08-09T14:42:30.135Z,58.96
2022-08-09T14:46:40.436Z,58.67
2022-08-09T14:47:57.371Z,58.73
2022-08-09T14:50:32.308Z,58.78
2022-08-09T14:53:01.974Z,58.93
2022-08-09T14:55:32.069Z,58.93
2022-08-09T14:58:00.383Z,58.98
2022-08-09T15:00:30.350Z,59.01
2022-08-09T15:02:58.367Z,59.06
2022-08-09T15:05:27.328Z,58.90
2022-08-09T15:07:58.299Z,58.94
2022-08-09T15:10:31.490Z,59.13
2022-08-09T15:13:02.984Z,59.46
2022-08-09T15:15:34.450Z,59.30
2022-08-09T15:18:06.654Z,59.14
2022-08-09T15:21:56.529Z,58.92
2022-08-09T15:24:05.764Z,58.95
2022-08-09T15:26:18.766Z,58.93
2022-08-09T15:28:55.518Z,58.87
2022-08-09T15:31:28.669Z,59.14
2022-08-09T15:34:33.579Z,58.64
2022-08-09T15:36:58.383Z,58.88
2022-08-09T15:39:25.701Z,59.33
2022-08-09T15:42:02.729Z,57.47
2022-08-09T15:44:32.630Z,57.67
2022-08-09T15:47:00.438Z,56.95
2022-08-09T15:49:28.587Z,55.31
2022-08-09T15:52:04.726Z,56.40
2022-08-09T15:54:46.175Z,55.18
2022-08-09T15:57:34.027Z,53.57
2022-08-09T16:00:04.054Z,55.68
2022-08-09T16:02:31.377Z,54.97
2022-08-09T16:04:58.337Z,55.06
2022-08-09T16:07:29.663Z,55.74
2022-08-09T16:10:16.983Z,55.15
2022-08-09T16:12:55.883Z,55.50
2022-08-09T16:16:04.561Z,53.31
2022-08-09T16:18:12.576Z,55.06
2022-08-09T16:20:41.594Z,53.97
2022-08-09T16:23:11.713Z,53.56
2022-08-09T16:25:40.515Z,53.25
2022-08-09T16:28:08.089Z,53.28
2022-08-09T16:30:40.922Z,53.86
2022-08-09T16:33:12.090Z,53.81
2022-08-09T16:35:57.242Z,54.16
2022-08-09T16:38:27.024Z,53.38
2022-08-09T16:40:53.991Z,54.64
2022-08-09T16:43:22.630Z,54.71
2022-08-09T16:45:53.656Z,55.06
2022-08-09T16:48:40.997Z,55.68
2022-08-09T16:51:13.850Z,55.83
2022-08-09T16:54:18.034Z,56.02
2022-08-09T16:56:35.179Z,56.17
2022-08-09T16:59:06.750Z,56.53
2022-08-09T17:01:38.715Z,56.88
2022-08-09T17:04:06.666Z,57.04
2022-08-09T17:08:41.584Z,57.19
2022-08-09T17:09:44.988Z,56.93
2022-08-09T17:12:08.991Z,57.55
2022-08-09T17:14:36.258Z,57.24
2022-08-09T17:17:25.856Z,57.65
2022-08-09T17:20:29.093Z,57.77
2022-08-09T17:22:52.110Z,57.92
2022-08-09T17:25:20.463Z,57.71
2022-08-09T17:27:54.360Z,57.65
2022-08-09T17:30:25.769Z,57.68
2022-08-09T17:32:53.456Z,55.53
2022-08-09T17:35:20.531Z,56.66
2022-08-09T17:38:11.943Z,56.73
2022-08-09T17:40:35.558Z,57.11
2022-08-09T17:43:32.210Z,57.11
2022-08-09T17:46:02.664Z,57.46
2022-08-09T17:48:39.783Z,57.45
2022-08-09T17:51:18.113Z,57.67
2022-08-09T17:53:51.679Z,57.30
2022-08-09T17:56:35.209Z,57.39
2022-08-09T17:59:11.517Z,57.61
2022-08-09T18:01:58.056Z,57.90
2022-08-09T18:04:27.206Z,58.16
2022-08-09T18:06:55.646Z,57.79
2022-08-09T18:09:40.282Z,58.30
2022-08-09T18:12:17.637Z,58.27
2022-08-09T18:14:54.103Z,57.88
2022-08-09T18:17:27.472Z,58.40
2022-08-09T18:20:59.790Z,58.58
2022-08-09T18:22:57.361Z,58.38
2022-08-09T18:25:51.181Z,58.40
2022-08-09T18:28:21.398Z,57.57
2022-08-09T18:31:01.100Z,57.64
2022-08-09T18:33:28.413Z,57.64
2022-08-09T18:35:59.265Z,57.66
2022-08-09T18:38:30.383Z,55.96
2022-08-09T18:40:59.281Z,56.26
2022-08-09T18:43:26.407Z,56.00
2022-08-09T18:46:50.074Z,55.69
2022-08-09T18:48:42.298Z,55.76
2022-08-09T18:51:09.888Z,55.20
2022-08-09T18:54:00.596Z,55.28
2022-08-09T18:56:28.183Z,55.14
2022-08-09T18:58:57.373Z,55.16
2022-08-09T19:01:25.894Z,55.18
2022-08-09T19:04:06.196Z,55.26
2022-08-09T19:06:38.548Z,54.87
2022-08-09T19:09:07.437Z,54.48
2022-08-09T19:11:37.738Z,54.36
2022-08-09T19:14:06.570Z,54.23
2022-08-09T19:16:35.909Z,53.84
2022-08-09T19:19:21.241Z,54.06
2022-08-09T19:22:05.052Z,54.04
2022-08-09T19:25:08.839Z,53.90
2022-08-09T19:27:23.106Z,53.77
2022-08-09T19:30:23.167Z,53.70
2022-08-09T19:32:37.710Z,54.18
2022-08-09T19:35:05.840Z,53.83
2022-08-09T19:37:54.014Z,53.69
2022-08-09T19:40:21.901Z,53.57
2022-08-09T19:42:49.925Z,53.70
2022-08-09T19:45:18.672Z,53.85
2022-08-09T19:47:47.979Z,54.70
2022-08-09T19:50:51.511Z,55.25
2022-08-09T19:53:04.691Z,55.78
2022-08-09T19:56:02.765Z,56.46
2022-08-09T19:58:30.088Z,56.34
2022-08-09T20:00:58.782Z,56.53
2022-08-09T20:04:09.786Z,56.51
2022-08-09T20:06:23.336Z,56.80
2022-08-09T20:08:56.584Z,56.68
2022-08-09T20:11:26.583Z,56.90
2022-08-09T20:13:55.065Z,56.96
2022-08-09T20:16:36.898Z,56.68
2022-08-09T20:19:47.423Z,56.88
2022-08-09T20:22:00.157Z,57.26
2022-08-09T20:24:33.924Z,57.40
2022-08-09T20:27:08.419Z,57.33
2022-08-09T20:29:39.745Z,57.26
2022-08-09T20:32:30.393Z,57.30
2022-08-09T20:34:56.015Z,57.36
2022-08-09T20:37:24.098Z,57.23
2022-08-09T20:40:15.232Z,57.38
2022-08-09T20:42:39.177Z,57.22
2022-08-09T20:47:59.026Z,57.56
2022-08-09T20:50:47.271Z,57.61
2022-08-09T20:53:18.799Z,57.41
2022-08-09T20:56:02.836Z,57.52
2022-08-09T20:58:32.360Z,57.67
2022-08-09T21:01:32.275Z,57.49
2022-08-09T21:05:49.398Z,57.76
2022-08-09T21:06:42.695Z,57.50
2022-08-09T21:09:14.300Z,57.21
2022-08-09T21:14:34.775Z,57.47
2022-08-09T21:18:11.090Z,57.35
2022-08-09T21:20:19.008Z,57.27
2022-08-09T21:22:46.863Z,57.80
2022-08-09T21:25:39.304Z,57.84
2022-08-09T21:28:15.811Z,57.55
2022-08-09T21:30:43.581Z,57.83
2022-08-09T21:33:10.647Z,57.55
2022-08-09T21:35:40.554Z,57.36
2022-08-09T21:38:11.590Z,57.69
2022-08-09T21:40:39.550Z,57.64
2022-08-09T21:43:09.512Z,57.77
2022-08-09T21:45:39.315Z,57.62
2022-08-09T21:48:09.779Z,57.70
2022-08-09T21:50:46.702Z,57.93
2022-08-09T21:53:39.859Z,58.03
2022-08-09T21:56:07.186Z,57.88
2022-08-09T21:58:54.135Z,58.18
2022-08-09T22:01:26.029Z,58.43
2022-08-09T22:04:08.296Z,58.22
2022-08-09T22:06:35.229Z,58.51
2022-08-09T22:09:02.145Z,58.23
2022-08-09T22:12:09.052Z,58.24
2022-08-09T22:14:16.408Z,58.19
2022-08-09T22:16:44.455Z,58.25
2022-08-09T22:19:53.381Z,58.73
2022-08-09T22:21:58.382Z,58.62
2022-08-09T22:24:25.300Z,58.23
2022-08-09T22:26:53.172Z,58.48
2022-08-09T22:29:28.907Z,58.19
2022-08-09T22:32:01.976Z,58.44
2022-08-09T22:34:29.533Z,58.70
2022-08-09T22:36:58.454Z,58.48
2022-08-09T22:39:58.161Z,58.37
2022-08-09T22:42:21.131Z,58.31
2022-08-09T22:45:00.021Z,58.68
2022-08-09T22:48:33.874Z,58.69
2022-08-09T22:50:25.884Z,58.81
2022-08-09T22:52:54.856Z,58.51
2022-08-09T22:55:39.597Z,58.90
2022-08-09T22:58:20.377Z,58.84
2022-08-09T23:00:58.367Z,58.59
2022-08-09T23:04:02.649Z,58.83
2022-08-09T23:06:14.269Z,58.45
2022-08-09T23:08:44.614Z,58.65
2022-08-09T23:11:15.867Z,59.01
2022-08-09T23:13:46.990Z,58.81
2022-08-09T23:16:16.528Z,58.71
2022-08-09T23:18:45.380Z,59.01
2022-08-09T23:21:14.875Z,58.93
2022-08-09T23:24:05.482Z,58.76
2022-08-09T23:26:34.426Z,59.11
2022-08-09T23:29:01.393Z,59.04
2022-08-09T23:31:28.335Z,58.88
2022-08-09T23:33:55.191Z,59.40
2022-08-09T23:36:22.114Z,59.26
2022-08-09T23:38:49.603Z,59.25
2022-08-09T23:41:29.071Z,59.28
2022-08-09T23:43:58.406Z,59.19
2022-08-09T23:46:25.625Z,58.96
2022-08-09T23:48:52.444Z,59.02
2022-08-09T23:51:19.429Z,59.33
2022-08-09T23:53:46.327Z,59.60
2022-08-09T23:56:16.617Z,59.30
2022-08-09T23:58:48.695Z,59.47
